Ana Sayfa
METAR-TAF:

METAR-TAF

Havaalanları :

Lake Argyle, Avustralya

Enlem: 16-38-13S, Boylam: 128-27-05E, yükseklik: 159 m

Güncel hava durumu gözlemi

Rapor saat 12:00 UTC de 36 dakika önce yapıldı.
Sakin rüzgar
Sıcaklık 20°C
Nem 19%
Basınç 1016 hPa
Görüş mesafesi 10 km veya daha fazla

METAR: YARG 271200Z AUTO 00000KT 9999 // NCD 20/M04 Q1016

Saat: 20:36 (12:36 UTC)


TAF: eksik

4.000'den fazla havaalanı için hava durumu gözlemleri ve tahminleri (METAR ve TAF raporları).

Kullanılabilir istasyonlar harita üzerinde sarı ve kırmızı noktalarla gösterilir.

İstasyonun adını görmek için fareyi noktanın üzerinde gezdirin.

Sonrasında hava gözlem ve tahminlerini görmek için tıklayın.

Haritayı değiştirmek için: yaklaştırmak için siyah artı işaretli yeşil düğmeye ve uzaklaştırmak için de eksi işaretli düğmeye hızla tıklayın; bitişik haritalar için yeşil okları kullanın.


METAR-TAF: